Time;durP1;ratioP1;P1;durP2;ratioP2;P2;SDS_P1;SDS_P2;PMS_P1;PMS_P2;Temp;Humidity;BMP_temperature;BMP_pressure;BME280_temperature;BME280_humidity;BME280_pressure;Samples;Min_cycle;Max_cycle;Signal;HPM_P1;HPM_P2
2023/06/17 00:00:25;;;;;;;14.35;7.65;;;15.10;99.90;;;;;;4974139;28;20038;-87
2023/06/17 00:02:51;;;;;;;13.75;7.22;;;15.00;99.90;;;;;;4989992;28;20418;-88
2023/06/17 00:05:21;;;;;;;13.60;8.02;;;15.30;99.90;;;;;;4981942;28;20129;-88
2023/06/17 00:07:49;;;;;;;13.38;7.55;;;15.70;99.90;;;;;;4957255;28;20058;-87
2023/06/17 00:10:18;;;;;;;15.43;7.95;;;14.90;99.90;;;;;;4975857;28;20078;-88
2023/06/17 00:12:52;;;;;;;13.45;8.05;;;15.30;99.90;;;;;;4973324;28;20122;-87
2023/06/17 00:15:22;;;;;;;13.77;7.68;;;15.70;99.90;;;;;;4973420;28;20046;-88
2023/06/17 00:17:51;;;;;;;15.40;9.32;;;15.30;99.90;;;;;;4970544;28;20058;-87
2023/06/17 00:20:23;;;;;;;15.57;7.63;;;15.50;99.90;;;;;;4958597;28;20128;-87
2023/06/17 00:22:55;;;;;;;16.70;8.48;;;15.20;99.90;;;;;;4960283;28;20058;-87
2023/06/17 00:25:24;;;;;;;14.23;8.80;;;15.20;99.90;;;;;;4976695;28;20072;-87
2023/06/17 00:27:55;;;;;;;15.05;8.95;;;15.00;99.90;;;;;;4960227;28;20054;-87
2023/06/17 00:30:21;;;;;;;14.50;8.52;;;15.30;99.90;;;;;;4977168;28;20042;-88
2023/06/17 00:32:47;;;;;;;14.10;8.23;;;14.70;99.90;;;;;;4974388;28;20133;-88
2023/06/17 00:35:17;;;;;;;15.32;8.40;;;14.70;99.90;;;;;;4989008;28;20043;-87
2023/06/17 00:37:48;;;;;;;16.98;8.93;;;14.60;99.90;;;;;;4977614;28;20122;-87
2023/06/17 00:40:23;;;;;;;18.75;9.57;;;14.60;99.90;;;;;;4976205;28;20046;-87
2023/06/17 00:42:51;;;;;;;14.75;9.07;;;15.00;99.90;;;;;;4960005;28;20055;-87
2023/06/17 00:45:20;;;;;;;16.85;9.07;;;15.20;99.90;;;;;;4976618;28;20407;-87
2023/06/17 00:47:59;;;;;;;17.40;9.43;;;15.20;99.90;;;;;;4959209;28;20050;-87
2023/06/17 00:50:28;;;;;;;16.48;9.73;;;14.50;99.90;;;;;;4976898;28;20062;-87
2023/06/17 00:52:54;;;;;;;15.27;10.07;;;14.70;99.90;;;;;;4977038;28;20035;-88
2023/06/17 00:55:39;;;;;;;14.45;9.15;;;15.10;99.90;;;;;;4975875;28;20039;-88
2023/06/17 00:58:11;;;;;;;20.25;9.75;;;14.90;99.90;;;;;;4959214;28;20098;-87
2023/06/17 01:00:49;;;;;;;19.33;10.15;;;14.70;99.90;;;;;;4976097;28;20141;-87
2023/06/17 01:03:29;;;;;;;15.23;9.60;;;14.70;99.90;;;;;;4959089;28;20058;-85
2023/06/17 01:05:59;;;;;;;15.75;10.13;;;15.20;99.90;;;;;;4976460;28;20055;-86
2023/06/17 01:08:53;;;;;;;15.85;10.70;;;14.90;99.90;;;;;;4958504;28;20050;-85
2023/06/17 01:11:25;;;;;;;17.40;9.50;;;14.80;99.90;;;;;;4976761;28;20521;-86
2023/06/17 01:13:56;;;;;;;16.67;11.70;;;14.20;99.90;;;;;;4959270;28;20078;-85
2023/06/17 01:16:24;;;;;;;19.08;11.27;;;15.30;99.90;;;;;;4975501;28;20065;-85
2023/06/17 01:19:38;;;;;;;20.33;11.25;;;14.80;99.90;;;;;;4975364;28;20081;-85
2023/06/17 01:22:10;;;;;;;19.45;10.82;;;14.80;99.90;;;;;;4918991;29;20048;-86
2023/06/17 01:24:38;;;;;;;19.42;12.18;;;15.60;99.90;;;;;;4919728;29;20055;-86
2023/06/17 01:27:23;;;;;;;21.80;12.45;;;14.80;99.90;;;;;;4958545;28;20063;-85
2023/06/17 01:29:52;;;;;;;21.33;12.13;;;15.70;99.90;;;;;;4960122;28;20085;-85
2023/06/17 01:32:18;;;;;;;21.92;12.68;;;15.30;99.90;;;;;;4966837;28;20054;-85
2023/06/17 01:34:50;;;;;;;24.30;13.43;;;14.90;99.90;;;;;;4976023;28;20042;-85
2023/06/17 01:37:27;;;;;;;24.17;13.60;;;14.80;99.90;;;;;;4958111;28;20047;-86
2023/06/17 01:39:56;;;;;;;22.77;13.27;;;14.90;99.90;;;;;;4976035;28;20509;-85
2023/06/17 01:42:45;;;;;;;23.63;13.60;;;14.80;99.90;;;;;;4975126;28;20170;-86
2023/06/17 01:45:21;;;;;;;23.77;13.70;;;14.80;99.90;;;;;;4976009;28;20043;-85
2023/06/17 01:47:56;;;;;;;26.75;14.35;;;14.70;99.90;;;;;;4997963;28;20028;-86
2023/06/17 01:50:21;;;;;;;26.95;14.45;;;15.60;99.90;;;;;;4997904;28;20029;-85
2023/06/17 01:53:02;;;;;;;25.48;14.30;;;15.30;99.90;;;;;;4967406;28;20047;-86
2023/06/17 01:55:49;;;;;;;24.98;14.30;;;15.40;99.90;;;;;;4961757;28;20051;-86
2023/06/17 01:58:30;;;;;;;26.27;14.90;;;15.50;99.90;;;;;;4958291;28;20491;-85
2023/06/17 02:01:02;;;;;;;23.83;14.82;;;14.70;99.90;;;;;;4975513;28;20734;-85
2023/06/17 02:03:27;;;;;;;24.88;14.65;;;14.60;99.90;;;;;;4976185;28;20050;-85
2023/06/17 02:05:53;;;;;;;28.02;15.23;;;15.10;99.90;;;;;;4983248;28;20042;-85
2023/06/17 02:08:22;;;;;;;25.65;14.40;;;15.00;99.90;;;;;;4994554;28;20077;-85
2023/06/17 02:10:54;;;;;;;27.42;16.02;;;15.10;99.90;;;;;;4970513;28;20039;-85
2023/06/17 02:13:26;;;;;;;25.85;15.63;;;14.50;99.90;;;;;;4957985;28;20070;-87
2023/06/17 02:16:44;;;;;;;29.17;15.45;;;15.30;99.90;;;;;;4958440;28;20045;-86
2023/06/17 02:19:28;;;;;;;26.98;15.80;;;14.80;99.90;;;;;;4973971;28;20166;-87
2023/06/17 02:21:54;;;;;;;26.95;16.70;;;14.70;99.90;;;;;;4983915;28;20114;-87
2023/06/17 02:24:30;;;;;;;30.15;17.25;;;14.40;99.90;;;;;;4976936;28;20459;-88
2023/06/17 02:27:02;;;;;;;29.92;16.85;;;14.70;99.90;;;;;;4960359;28;20058;-87
2023/06/17 02:29:27;;;;;;;28.45;16.77;;;14.40;99.90;;;;;;4975630;28;20457;-87
2023/06/17 02:31:53;;;;;;;27.80;16.42;;;15.10;99.90;;;;;;4957631;28;20134;-86
2023/06/17 02:34:54;;;;;;;26.83;16.13;;;14.80;99.90;;;;;;4974336;28;20046;-86
2023/06/17 02:37:20;;;;;;;24.15;16.30;;;14.20;99.90;;;;;;4975208;28;20053;-87
2023/06/17 02:39:51;;;;;;;28.17;18.15;;;14.00;99.90;;;;;;4956979;28;20047;-87
2023/06/17 02:42:17;;;;;;;26.83;17.42;;;14.50;99.90;;;;;;4974030;28;20053;-86
2023/06/17 02:45:01;;;;;;;27.40;18.33;;;14.00;99.90;;;;;;4957677;28;20039;-86
2023/06/17 02:47:35;;;;;;;;;;;14.50;99.90;;;;;;4974781;28;20085;-87
2023/06/17 02:50:00;;;;;;;27.65;16.98;;;14.00;99.90;;;;;;4974592;28;20025;-86
2023/06/17 02:52:26;;;;;;;30.35;17.92;;;14.00;99.90;;;;;;4975025;28;20130;-87
2023/06/17 02:54:55;;;;;;;29.48;17.23;;;14.00;99.90;;;;;;4973604;28;20038;-87
2023/06/17 02:57:20;;;;;;;29.27;18.17;;;14.10;99.90;;;;;;4956870;28;20050;-87
2023/06/17 02:59:47;;;;;;;27.25;18.52;;;14.90;99.90;;;;;;4957161;28;20042;-86
2023/06/17 03:02:18;;;;;;;26.90;17.98;;;14.40;99.90;;;;;;4979914;28;20049;-86
2023/06/17 03:04:53;;;;;;;31.80;18.13;;;15.10;99.90;;;;;;4968311;28;20080;-87
2023/06/17 03:07:19;;;;;;;29.30;18.67;;;15.00;99.90;;;;;;4973774;28;20050;-86
2023/06/17 03:09:45;;;;;;;28.45;18.17;;;14.90;99.90;;;;;;4974377;28;20046;-87
2023/06/17 03:12:28;;;;;;;28.17;17.80;;;14.00;99.90;;;;;;4974178;28;20081;-87
2023/06/17 03:15:01;;;;;;;28.40;18.20;;;14.50;99.90;;;;;;4956096;28;20478;-87
2023/06/17 03:17:27;;;;;;;29.45;18.65;;;14.00;99.90;;;;;;4974207;28;20503;-87
2023/06/17 03:19:53;;;;;;;29.48;19.25;;;14.40;99.90;;;;;;4953380;28;20082;-87
2023/06/17 03:22:19;;;;;;;28.50;18.27;;;14.60;99.90;;;;;;4954155;29;20074;-87
2023/06/17 03:24:45;;;;;;;28.27;18.85;;;13.80;99.90;;;;;;4954439;28;20093;-86
2023/06/17 03:27:12;;;;;;;25.23;17.75;;;14.40;99.90;;;;;;4953368;29;20052;-85
2023/06/17 03:29:37;;;;;;;29.15;18.67;;;14.60;99.90;;;;;;4953144;28;20101;-85
2023/06/17 03:32:03;;;;;;;28.67;18.85;;;14.10;99.90;;;;;;4953090;29;20047;-86
2023/06/17 03:34:31;;;;;;;30.13;18.77;;;14.10;99.90;;;;;;4955816;23;20575;-85
2023/06/17 03:36:56;;;;;;;29.70;18.95;;;14.00;99.90;;;;;;4934619;29;20534;-85
2023/06/17 03:39:22;;;;;;;27.85;18.83;;;14.00;99.90;;;;;;4935891;29;20052;-85
2023/06/17 03:41:51;;;;;;;29.92;19.58;;;14.80;99.90;;;;;;4934287;29;20039;-85
2023/06/17 03:44:35;;;;;;;29.55;19.17;;;14.70;99.90;;;;;;4933319;29;20051;-85
2023/06/17 03:47:02;;;;;;;;;;;13.80;99.90;;;;;;4935816;29;20048;-85
2023/06/17 03:49:27;;;;;;;26.90;18.50;;;14.50;99.90;;;;;;4934899;29;20005;-86
2023/06/17 03:51:53;;;;;;;29.35;19.20;;;14.10;99.90;;;;;;4935429;29;20122;-86
2023/06/17 03:54:39;;;;;;;31.10;19.33;;;13.90;99.90;;;;;;4934256;29;20048;-85
2023/06/17 03:57:10;;;;;;;30.95;19.90;;;14.20;99.90;;;;;;4933716;29;20048;-85
2023/06/17 03:59:37;;;;;;;30.27;19.33;;;14.20;99.90;;;;;;4935172;29;20051;-85
2023/06/17 04:02:02;;;;;;;32.33;20.20;;;14.20;99.90;;;;;;4941461;29;20380;-85
2023/06/17 04:04:46;;;;;;;29.65;18.52;;;14.20;99.90;;;;;;4950199;29;20048;-85
2023/06/17 04:07:11;;;;;;;30.88;19.23;;;15.10;99.90;;;;;;4934356;29;20528;-85
2023/06/17 04:09:43;;;;;;;32.88;19.27;;;14.60;99.90;;;;;;4933736;29;20046;-85
2023/06/17 04:12:27;;;;;;;30.50;18.77;;;14.30;99.90;;;;;;4933088;29;20040;-86
2023/06/17 04:14:59;;;;;;;31.42;18.88;;;14.40;99.90;;;;;;4934045;29;20043;-85
2023/06/17 04:17:43;;;;;;;33.60;20.17;;;14.90;99.90;;;;;;4933444;29;20098;-85
2023/06/17 04:20:14;;;;;;;29.33;19.15;;;15.20;99.90;;;;;;4933389;29;20087;-85
2023/06/17 04:22:41;;;;;;;30.25;19.05;;;14.50;99.90;;;;;;4934374;29;20051;-86
2023/06/17 04:25:23;;;;;;;31.02;20.20;;;13.40;99.90;;;;;;4932829;29;20058;-86
2023/06/17 04:30:17;;;;;;;28.20;18.95;;;14.20;99.90;;;;;;5015686;23;20498;-85
2023/06/17 04:32:43;;;;;;;30.00;18.77;;;15.30;99.90;;;;;;5011825;28;20046;-85
2023/06/17 04:35:21;;;;;;;28.48;19.67;;;13.30;99.90;;;;;;4993963;28;20042;-85
2023/06/17 04:38:03;;;;;;;29.92;18.13;;;15.30;99.90;;;;;;5012419;28;20448;-86
2023/06/17 04:40:43;;;;;;;26.52;18.27;;;14.10;99.90;;;;;;5011518;28;20049;-86
2023/06/17 04:43:09;;;;;;;28.33;18.63;;;14.70;99.90;;;;;;4994969;28;20049;-86
2023/06/17 04:45:51;;;;;;;30.05;20.15;;;15.20;99.90;;;;;;5011447;23;20052;-85
2023/06/17 04:48:40;;;;;;;26.15;18.13;;;15.30;99.90;;;;;;4991597;28;20062;-85
2023/06/17 04:51:53;;;;;;;27.48;19.58;;;14.50;99.90;;;;;;4985872;28;20053;-85
2023/06/17 04:54:18;;;;;;;29.58;19.00;;;14.50;99.90;;;;;;4896583;29;20148;-86
2023/06/17 04:56:51;;;;;;;28.85;19.20;;;14.40;99.90;;;;;;4897747;29;20136;-86
2023/06/17 04:59:23;;;;;;;27.88;19.42;;;14.40;99.90;;;;;;4904784;29;20041;-86
2023/06/17 05:01:48;;;;;;;33.08;19.38;;;14.50;99.90;;;;;;4892714;29;20045;-85
2023/06/17 05:04:20;;;;;;;27.63;19.05;;;15.10;99.90;;;;;;4932906;28;20050;-86
2023/06/17 05:06:48;;;;;;;30.52;18.75;;;14.30;99.90;;;;;;4959448;28;20495;-85
2023/06/17 05:09:26;;;;;;;27.73;18.80;;;15.40;99.90;;;;;;4959258;28;20141;-86
2023/06/17 05:11:52;;;;;;;28.77;18.83;;;15.10;99.90;;;;;;4959441;28;20082;-85
2023/06/17 05:14:18;;;;;;;27.33;18.58;;;15.10;99.90;;;;;;4975539;28;20127;-79
2023/06/17 05:16:52;;;;;;;30.58;18.67;;;14.90;99.90;;;;;;4976588;28;20051;-80
2023/06/17 05:19:18;;;;;;;27.70;18.90;;;14.70;99.90;;;;;;4976134;28;20047;-79
2023/06/17 05:21:46;;;;;;;26.83;17.38;;;14.60;99.90;;;;;;4975534;28;20035;-79
2023/06/17 05:24:12;;;;;;;29.13;19.08;;;15.30;99.90;;;;;;4958590;28;20039;-79
2023/06/17 05:26:37;;;;;;;31.75;19.40;;;14.80;99.90;;;;;;4976758;28;20156;-79
2023/06/17 05:29:03;;;;;;;28.40;18.13;;;14.80;99.90;;;;;;4983006;28;20053;-79
2023/06/17 05:31:28;;;;;;;29.98;18.70;;;14.90;99.90;;;;;;4984885;28;20518;-79
2023/06/17 05:33:54;;;;;;;28.63;19.30;;;14.90;99.90;;;;;;4995815;28;20046;-79
2023/06/17 05:36:20;;;;;;;27.98;19.20;;;14.90;99.90;;;;;;4982103;28;20139;-79
2023/06/17 05:38:45;;;;;;;29.55;19.92;;;15.00;99.90;;;;;;4976530;28;20074;-79
2023/06/17 05:41:11;;;;;;;26.25;18.27;;;14.90;99.90;;;;;;4966542;28;20385;-79
2023/06/17 05:43:36;;;;;;;27.15;18.58;;;15.50;99.90;;;;;;4975577;28;20046;-79
2023/06/17 05:46:02;;;;;;;27.58;19.23;;;15.20;99.90;;;;;;4959247;28;20061;-78
2023/06/17 05:48:28;;;;;;;29.13;19.20;;;14.90;99.90;;;;;;4995530;28;20055;-78
2023/06/17 05:50:53;;;;;;;26.77;18.80;;;15.50;99.90;;;;;;4968957;28;20134;-78
2023/06/17 05:53:19;;;;;;;26.95;19.33;;;14.90;99.90;;;;;;4975429;28;20047;-78
2023/06/17 05:55:45;;;;;;;29.98;19.80;;;15.10;99.90;;;;;;4975875;28;20046;-79
2023/06/17 05:58:10;;;;;;;27.33;18.63;;;15.00;99.90;;;;;;4957326;28;20050;-79
2023/06/17 06:00:36;;;;;;;26.08;17.75;;;15.20;99.90;;;;;;4976035;28;20385;-78
2023/06/17 06:03:01;;;;;;;26.70;18.48;;;15.10;99.90;;;;;;4974779;28;20475;-78
2023/06/17 06:05:27;;;;;;;25.15;17.17;;;15.80;99.90;;;;;;4975417;28;20057;-78
2023/06/17 06:07:52;;;;;;;26.85;17.42;;;15.20;99.90;;;;;;4958141;28;20054;-78
2023/06/17 06:10:20;;;;;;;24.67;17.30;;;15.30;99.90;;;;;;4957048;28;20545;-79
2023/06/17 06:12:46;;;;;;;24.02;17.42;;;15.30;99.90;;;;;;4975754;28;20039;-79
2023/06/17 06:15:12;;;;;;;25.08;17.35;;;15.30;99.90;;;;;;4957967;28;20073;-79
2023/06/17 06:17:38;;;;;;;24.10;16.83;;;15.80;99.90;;;;;;4971860;28;20044;-79
2023/06/17 06:20:04;;;;;;;24.15;16.95;;;15.40;99.90;;;;;;4976484;28;20050;-79
2023/06/17 06:22:30;;;;;;;27.13;18.20;;;15.50;99.90;;;;;;4957707;28;20047;-79
2023/06/17 06:24:56;;;;;;;29.92;18.42;;;15.50;99.90;;;;;;4982181;28;20088;-78
2023/06/17 06:27:21;;;;;;;26.75;16.92;;;15.50;99.90;;;;;;4965765;28;20073;-79
2023/06/17 06:29:47;;;;;;;28.58;18.42;;;15.50;99.90;;;;;;4967675;28;20042;-79
2023/06/17 06:32:13;;;;;;;24.75;17.58;;;15.40;99.90;;;;;;4964265;28;20081;-79
2023/06/17 06:34:38;;;;;;;25.85;17.65;;;15.40;99.90;;;;;;4983917;28;20089;-80
2023/06/17 06:37:04;;;;;;;25.27;17.10;;;15.40;99.90;;;;;;4982833;28;20043;-80
2023/06/17 06:39:30;;;;;;;26.50;17.15;;;15.40;99.90;;;;;;4965218;28;20046;-80
2023/06/17 06:41:56;;;;;;;25.75;16.42;;;16.10;99.90;;;;;;4983266;28;20406;-81
2023/06/17 06:44:21;;;;;;;25.27;17.30;;;15.60;99.90;;;;;;4961355;28;20158;-78
2023/06/17 06:46:47;;;;;;;27.10;16.67;;;15.70;99.90;;;;;;4973835;28;20145;-79
2023/06/17 06:49:12;;;;;;;27.02;17.48;;;15.80;99.90;;;;;;4956796;28;20484;-78
2023/06/17 06:51:39;;;;;;;24.42;17.00;;;15.80;99.90;;;;;;4957164;28;20049;-78
2023/06/17 06:54:05;;;;;;;24.73;17.88;;;15.70;99.90;;;;;;4973685;28;20185;-79
2023/06/17 06:56:30;;;;;;;30.80;18.80;;;15.70;99.90;;;;;;4957207;28;20535;-79
2023/06/17 06:58:56;;;;;;;30.20;18.15;;;15.80;99.90;;;;;;4973090;28;20825;-79
2023/06/17 07:01:27;;;;;;;26.05;17.65;;;15.70;99.90;;;;;;4973983;28;20125;-78
2023/06/17 07:03:52;;;;;;;29.83;16.95;;;15.90;99.90;;;;;;4976895;28;20180;-78
2023/06/17 07:06:18;;;;;;;24.92;17.20;;;15.90;99.90;;;;;;4992520;28;20117;-78
2023/06/17 07:08:44;;;;;;;24.67;17.15;;;16.10;99.90;;;;;;4976112;28;20510;-79
2023/06/17 07:11:10;;;;;;;23.63;15.68;;;16.20;99.90;;;;;;4993360;28;20084;-79
2023/06/17 07:13:35;;;;;;;24.13;16.27;;;16.20;99.90;;;;;;4992959;28;20092;-79
2023/06/17 07:16:01;;;;;;;24.30;16.85;;;16.40;99.90;;;;;;4974330;28;20057;-79
2023/06/17 07:18:27;;;;;;;25.42;17.63;;;16.30;99.90;;;;;;4956838;28;20125;-79
2023/06/17 07:20:52;;;;;;;23.75;16.00;;;16.30;99.90;;;;;;4973363;28;20057;-81
2023/06/17 07:23:19;;;;;;;23.27;15.63;;;16.30;99.90;;;;;;4956582;28;20039;-79
2023/06/17 07:25:44;;;;;;;28.45;17.02;;;16.40;99.90;;;;;;4974183;28;20057;-79
2023/06/17 07:28:11;;;;;;;25.83;16.20;;;16.50;99.90;;;;;;4972701;28;20034;-79
2023/06/17 07:30:36;;;;;;;21.88;15.73;;;16.60;99.90;;;;;;4974082;28;20050;-80
2023/06/17 07:33:03;;;;;;;21.42;15.57;;;16.90;99.90;;;;;;4956232;28;20089;-79
2023/06/17 07:35:29;;;;;;;22.80;15.55;;;16.90;99.90;;;;;;4973250;28;20104;-79
2023/06/17 07:37:54;;;;;;;23.05;16.17;;;17.10;99.90;;;;;;4956845;28;20054;-80
2023/06/17 07:40:20;;;;;;;22.08;15.88;;;17.00;99.90;;;;;;4956184;28;20125;-80
2023/06/17 07:42:46;;;;;;;20.92;15.63;;;17.10;99.90;;;;;;4972849;28;20047;-80
2023/06/17 07:45:11;;;;;;;23.38;16.00;;;17.40;99.90;;;;;;4973681;28;20102;-80
2023/06/17 07:47:38;;;;;;;22.58;15.52;;;17.20;99.90;;;;;;4956075;28;20055;-80
2023/06/17 07:50:04;;;;;;;21.52;16.40;;;17.40;99.90;;;;;;4972661;28;20097;-80
2023/06/17 07:52:32;;;;;;;19.67;14.63;;;17.60;99.90;;;;;;4956279;28;20050;-80
2023/06/17 07:54:58;;;;;;;21.85;14.98;;;18.20;99.90;;;;;;4973551;28;20055;-80
2023/06/17 07:57:23;;;;;;;22.20;14.32;;;18.20;99.90;;;;;;4955553;28;20050;-80
2023/06/17 07:59:49;;;;;;;21.55;14.52;;;18.40;99.90;;;;;;4956488;28;20085;-80
2023/06/17 08:02:15;;;;;;;21.85;14.13;;;18.50;99.90;;;;;;4973621;28;20442;-80
2023/06/17 08:04:41;;;;;;;20.88;14.23;;;18.80;99.90;;;;;;4973120;28;20046;-80
2023/06/17 08:07:07;;;;;;;21.90;14.77;;;19.00;99.90;;;;;;4973461;28;20050;-80
2023/06/17 08:09:32;;;;;;;22.33;14.25;;;19.20;99.90;;;;;;4973049;28;20042;-79
2023/06/17 08:11:58;;;;;;;22.50;14.75;;;19.40;99.90;;;;;;4972898;28;20225;-79
2023/06/17 08:14:24;;;;;;;21.50;14.50;;;19.70;99.90;;;;;;4956246;28;20074;-80
2023/06/17 08:16:49;;;;;;;20.98;14.38;;;19.80;99.90;;;;;;4972527;28;20411;-80
2023/06/17 08:19:15;;;;;;;19.13;13.98;;;19.90;99.90;;;;;;4973530;28;20118;-80
2023/06/17 08:21:45;;;;;;;20.15;13.55;;;19.80;99.90;;;;;;4973462;28;20110;-80
2023/06/17 08:24:22;;;;;;;22.65;13.90;;;19.70;99.90;;;;;;4955038;28;20039;-80
2023/06/17 08:26:49;;;;;;;20.40;13.48;;;19.80;99.90;;;;;;4956158;28;20070;-80
2023/06/17 08:29:16;;;;;;;21.00;13.77;;;19.80;99.90;;;;;;4956030;28;20051;-80
2023/06/17 08:31:44;;;;;;;18.75;13.13;;;19.90;99.90;;;;;;4955283;28;20043;-81
2023/06/17 08:34:10;;;;;;;19.05;12.70;;;20.10;99.90;;;;;;4973503;28;20034;-81
2023/06/17 08:36:38;;;;;;;19.23;12.93;;;20.20;99.90;;;;;;4975266;28;20487;-80
2023/06/17 08:39:04;;;;;;;18.50;13.23;;;20.20;99.90;;;;;;4992653;28;20077;-80
2023/06/17 08:41:30;;;;;;;19.02;13.07;;;20.10;99.90;;;;;;4996536;28;20088;-81
2023/06/17 08:44:00;;;;;;;18.25;13.45;;;19.90;99.90;;;;;;4978586;28;20038;-80
2023/06/17 08:46:27;;;;;;;20.27;13.70;;;20.00;99.90;;;;;;4995323;28;20054;-80
2023/06/17 08:48:53;;;;;;;17.75;12.45;;;20.00;99.90;;;;;;4996224;28;20121;-80
2023/06/17 08:51:19;;;;;;;19.92;14.25;;;20.10;99.90;;;;;;4995852;28;20069;-79
2023/06/17 08:53:47;;;;;;;19.77;13.50;;;20.30;99.90;;;;;;4978062;28;20376;-79
2023/06/17 08:56:13;;;;;;;18.63;13.40;;;20.30;99.90;;;;;;4995900;28;20049;-79
2023/06/17 08:58:39;;;;;;;19.45;13.07;;;20.50;99.90;;;;;;4996035;28;20050;-79
2023/06/17 09:01:08;;;;;;;18.83;12.68;;;20.60;99.90;;;;;;4995213;28;20081;-79
2023/06/17 09:03:37;;;;;;;18.83;12.77;;;20.70;99.90;;;;;;4996167;28;20050;-80
2023/06/17 09:06:14;;;;;;;18.33;12.48;;;20.90;99.90;;;;;;4976975;28;20053;-79
2023/06/17 09:08:41;;;;;;;17.25;12.13;;;21.00;99.90;;;;;;4978747;28;20060;-79
2023/06/17 09:11:07;;;;;;;19.70;12.50;;;21.70;99.90;;;;;;4978192;28;20046;-81
2023/06/17 09:13:33;;;;;;;17.50;11.98;;;21.50;99.90;;;;;;4977837;28;20390;-80
2023/06/17 09:15:59;;;;;;;18.52;12.40;;;21.70;99.90;;;;;;4995496;28;20049;-79
2023/06/17 09:18:25;;;;;;;15.20;10.88;;;21.60;99.90;;;;;;4995889;28;20046;-79
2023/06/17 09:20:55;;;;;;;20.40;11.85;;;21.60;99.90;;;;;;4994729;28;20049;-79
2023/06/17 09:23:22;;;;;;;16.83;11.70;;;21.70;99.90;;;;;;4978426;28;20050;-79
2023/06/17 09:25:48;;;;;;;18.40;11.63;;;21.60;99.90;;;;;;4996732;28;20042;-80
2023/06/17 09:28:15;;;;;;;15.93;11.05;;;21.90;99.90;;;;;;4995627;28;20049;-80
2023/06/17 09:30:43;;;;;;;17.67;11.18;;;21.90;99.90;;;;;;4996096;28;20043;-80
2023/06/17 09:33:21;;;;;;;17.73;11.63;;;22.00;99.90;;;;;;4995979;28;20046;-81
2023/06/17 09:35:48;;;;;;;17.13;11.20;;;22.10;99.90;;;;;;4977653;28;20089;-80
2023/06/17 09:38:17;;;;;;;15.45;10.93;;;22.00;99.90;;;;;;4978784;28;20209;-80
2023/06/17 09:40:43;;;;;;;18.17;10.85;;;22.10;99.90;;;;;;4978536;28;20073;-80
2023/06/17 09:43:11;;;;;;;17.00;11.05;;;22.40;99.90;;;;;;4977514;28;20070;-80
2023/06/17 09:45:39;;;;;;;16.17;10.05;;;22.50;99.90;;;;;;4994986;28;20041;-81
2023/06/17 09:48:07;;;;;;;16.77;11.43;;;22.80;99.90;;;;;;4994475;28;20039;-80
2023/06/17 09:50:36;;;;;;;14.48;10.43;;;22.90;99.90;;;;;;4994678;28;20049;-80
2023/06/17 09:53:02;;;;;;;15.15;9.63;;;23.20;99.90;;;;;;4995060;28;20046;-80
2023/06/17 09:55:29;;;;;;;16.50;10.77;;;23.40;99.70;;;;;;4976866;28;20039;-81
2023/06/17 09:57:55;;;;;;;17.30;10.35;;;23.50;99.10;;;;;;4995045;28;20418;-80
2023/06/17 10:00:24;;;;;;;14.13;9.60;;;23.60;98.60;;;;;;4977197;28;20061;-81
2023/06/17 10:02:52;;;;;;;16.10;9.90;;;23.60;96.90;;;;;;4976530;28;20056;-80
2023/06/17 10:05:20;;;;;;;15.88;9.70;;;23.50;97.80;;;;;;4976930;28;20402;-80
2023/06/17 10:07:48;;;;;;;16.05;8.77;;;23.50;97.60;;;;;;4977445;28;20060;-80
2023/06/17 10:10:15;;;;;;;15.25;9.50;;;23.40;96.50;;;;;;4976004;28;20089;-81
2023/06/17 10:12:43;;;;;;;15.25;9.40;;;23.50;96.60;;;;;;4995089;28;20050;-80
2023/06/17 10:15:12;;;;;;;16.67;9.57;;;23.60;95.30;;;;;;4976919;28;20375;-80
2023/06/17 10:17:40;;;;;;;15.07;10.10;;;23.60;95.70;;;;;;4976600;28;20551;-81
2023/06/17 10:20:08;;;;;;;17.25;9.75;;;23.70;95.70;;;;;;4994642;28;20046;-80
2023/06/17 10:22:38;;;;;;;14.20;9.15;;;23.70;95.70;;;;;;4994494;28;20170;-80
2023/06/17 10:25:06;;;;;;;13.23;9.48;;;23.90;95.00;;;;;;4993559;28;20042;-80
2023/06/17 10:27:31;;;;;;;15.60;9.23;;;24.00;95.80;;;;;;4994722;28;20052;-80
2023/06/17 10:29:58;;;;;;;15.57;9.27;;;24.10;96.00;;;;;;4993871;28;20054;-80
2023/06/17 10:32:25;;;;;;;15.00;8.95;;;24.20;95.30;;;;;;4976150;28;20103;-80
2023/06/17 10:35:19;;;;;;;15.30;8.48;;;24.40;95.10;;;;;;4991582;28;20101;-80
2023/06/17 10:37:49;;;;;;;14.68;9.63;;;24.60;93.40;;;;;;4991537;28;20101;-80
2023/06/17 10:40:18;;;;;;;13.40;7.88;;;24.50;94.00;;;;;;4960981;28;20054;-80
2023/06/17 10:43:02;;;;;;;15.15;8.70;;;24.60;93.70;;;;;;4974790;28;20410;-80
2023/06/17 10:45:29;;;;;;;13.68;8.60;;;24.80;93.30;;;;;;4973752;28;20407;-81
2023/06/17 10:48:20;;;;;;;13.95;8.73;;;24.70;93.60;;;;;;4957621;28;20440;-79
2023/06/17 10:50:51;;;;;;;12.48;7.25;;;24.90;92.50;;;;;;4987609;28;20074;-79
2023/06/17 10:53:20;;;;;;;14.18;7.28;;;25.00;92.30;;;;;;4981614;28;20078;-79
2023/06/17 10:55:45;;;;;;;13.05;7.60;;;25.30;91.80;;;;;;4955647;28;20058;-83
2023/06/17 10:58:11;;;;;;;13.15;7.60;;;25.20;91.80;;;;;;4974240;28;20372;-80
2023/06/17 11:00:37;;;;;;;13.27;7.20;;;25.30;91.90;;;;;;4991088;28;20449;-81
2023/06/17 11:03:02;;;;;;;11.82;7.50;;;25.30;91.70;;;;;;4975593;28;20077;-81
2023/06/17 11:05:35;;;;;;;13.93;7.15;;;25.30;91.50;;;;;;4975637;28;20076;-81
2023/06/17 11:08:02;;;;;;;13.40;8.70;;;25.40;91.60;;;;;;4976057;28;20057;-81
2023/06/17 11:10:28;;;;;;;11.10;7.60;;;25.40;91.80;;;;;;4993760;28;20049;-81
2023/06/17 11:12:54;;;;;;;13.15;7.55;;;25.40;91.40;;;;;;4993297;28;20038;-80
2023/06/17 11:15:22;;;;;;;12.88;7.20;;;25.50;90.70;;;;;;4975780;28;20089;-80
2023/06/17 11:17:57;;;;;;;12.15;6.90;;;25.70;90.80;;;;;;4993919;28;20049;-81
2023/06/17 11:20:23;;;;;;;14.38;8.32;;;25.90;91.30;;;;;;4992742;28;20095;-82
2023/06/17 11:22:48;;;;;;;15.93;8.10;;;25.90;91.40;;;;;;4993379;28;20472;-82
2023/06/17 11:25:14;;;;;;;11.23;7.00;;;26.10;91.50;;;;;;4990974;28;20042;-80
2023/06/17 11:27:40;;;;;;;13.57;7.75;;;26.40;91.80;;;;;;4963125;28;20042;-80
2023/06/17 11:30:08;;;;;;;11.85;7.88;;;26.50;91.40;;;;;;4984265;28;20122;-79
2023/06/17 11:32:34;;;;;;;13.13;7.65;;;26.40;91.00;;;;;;4983105;28;20038;-78
2023/06/17 11:35:01;;;;;;;12.68;8.10;;;26.50;91.10;;;;;;4965533;28;20065;-79
2023/06/17 11:37:26;;;;;;;12.90;7.97;;;26.70;91.20;;;;;;4966757;28;20034;-79
2023/06/17 11:39:57;;;;;;;13.95;8.55;;;26.90;91.10;;;;;;4981711;28;20053;-79
2023/06/17 11:42:23;;;;;;;12.05;7.65;;;26.90;90.90;;;;;;4965932;28;20121;-79
2023/06/17 11:44:48;;;;;;;13.35;7.97;;;26.90;90.70;;;;;;4981710;28;20168;-79
2023/06/17 11:47:14;;;;;;;15.13;7.47;;;26.90;90.00;;;;;;4966367;28;20053;-79
2023/06/17 11:49:42;;;;;;;14.23;7.53;;;26.90;90.60;;;;;;4981051;28;20085;-78
2023/06/17 11:52:11;;;;;;;12.18;7.28;;;26.90;90.00;;;;;;4964235;28;20049;-78
2023/06/17 11:54:50;;;;;;;13.52;7.50;;;27.00;90.20;;;;;;4964025;28;20138;-78
2023/06/17 11:57:25;;;;;;;13.15;7.88;;;27.20;90.00;;;;;;4982823;28;20049;-79
2023/06/17 11:59:51;;;;;;;15.13;7.75;;;27.30;89.50;;;;;;4964177;28;20050;-79
2023/06/17 12:02:17;;;;;;;13.57;7.55;;;27.50;90.00;;;;;;4964628;28;20055;-79
2023/06/17 12:04:44;;;;;;;14.10;7.78;;;27.60;90.10;;;;;;4963731;28;20492;-80
2023/06/17 12:07:10;;;;;;;12.88;7.45;;;27.50;90.00;;;;;;4962908;28;20034;-79
2023/06/17 12:09:36;;;;;;;11.88;7.50;;;27.60;90.00;;;;;;4981442;28;20054;-79
2023/06/17 12:12:02;;;;;;;13.00;7.63;;;27.70;88.90;;;;;;4963689;28;20478;-79
2023/06/17 12:14:28;;;;;;;12.40;7.30;;;28.10;89.00;;;;;;4969415;28;20046;-80
2023/06/17 12:16:54;;;;;;;12.70;6.90;;;28.30;88.40;;;;;;4986135;28;20110;-78
2023/06/17 12:19:22;;;;;;;11.32;6.43;;;28.60;87.60;;;;;;4966327;28;20458;-80
2023/06/17 12:21:48;;;;;;;11.45;6.25;;;28.40;84.20;;;;;;5032943;23;20047;-80
2023/06/17 12:24:17;;;;;;;10.77;6.68;;;28.40;85.00;;;;;;4948765;28;20085;-79
2023/06/17 12:26:44;;;;;;;11.73;6.72;;;28.50;84.70;;;;;;4966673;28;20050;-80
2023/06/17 12:29:10;;;;;;;12.55;6.60;;;28.50;84.60;;;;;;4963334;28;20090;-80
2023/06/17 12:31:36;;;;;;;13.65;6.22;;;28.70;84.90;;;;;;4939910;29;20496;-80
2023/06/17 12:34:03;;;;;;;10.00;5.90;;;29.00;84.40;;;;;;4957435;29;20055;-80
2023/06/17 12:36:30;;;;;;;10.57;6.50;;;29.00;83.60;;;;;;4941160;29;20122;-80
2023/06/17 12:38:56;;;;;;;10.68;6.47;;;29.10;83.50;;;;;;4957425;29;20054;-80
2023/06/17 12:41:21;;;;;;;11.50;6.68;;;29.20;83.20;;;;;;4940640;29;20443;-80
2023/06/17 12:43:48;;;;;;;12.27;6.50;;;29.20;83.70;;;;;;4957704;29;20047;-80